createdAt,value
2022-11-29T00:01:54.211Z,102016.02
2022-11-29T00:04:22.823Z,102013.19
2022-11-29T00:06:51.353Z,102015.87
2022-11-29T00:09:19.810Z,102014.23
2022-11-29T00:12:06.665Z,102014.59
2022-11-29T00:14:35.283Z,102014.06
2022-11-29T00:17:04.621Z,102011.79
2022-11-29T00:19:36.374Z,102005.74
2022-11-29T00:22:05.397Z,102000.53
2022-11-29T00:24:34.756Z,101997.80
2022-11-29T00:27:03.401Z,101997.73
2022-11-29T00:29:32.188Z,101997.05
2022-11-29T00:32:00.722Z,102003.92
2022-11-29T00:34:29.378Z,102000.92
2022-11-29T00:36:59.168Z,102005.27
2022-11-29T00:39:27.769Z,102004.23
2022-11-29T00:41:56.492Z,102006.70
2022-11-29T00:44:25.001Z,102007.81
2022-11-29T00:46:53.583Z,102007.33
2022-11-29T00:49:22.170Z,102004.73
2022-11-29T00:51:50.869Z,102004.75
2022-11-29T00:54:19.310Z,102005.23
2022-11-29T00:56:47.846Z,102006.14
2022-11-29T00:59:16.476Z,102004.73
2022-11-29T01:01:45.151Z,102003.33
2022-11-29T01:04:13.752Z,101995.44
2022-11-29T01:06:42.529Z,101994.46
2022-11-29T01:09:11.046Z,101996.34
2022-11-29T01:11:39.536Z,101993.06
2022-11-29T01:14:08.128Z,101993.23
2022-11-29T01:16:36.834Z,101987.61
2022-11-29T01:19:07.445Z,101991.92
2022-11-29T01:21:36.208Z,101989.64
2022-11-29T01:24:05.080Z,101988.70
2022-11-29T01:26:36.816Z,101987.56
2022-11-29T01:29:05.459Z,101985.59
2022-11-29T01:31:38.211Z,101983.35
2022-11-29T01:34:07.778Z,101977.45
2022-11-29T01:36:36.280Z,101979.34
2022-11-29T01:39:06.587Z,101980.07
2022-11-29T01:41:37.963Z,101976.61
2022-11-29T01:44:26.679Z,101972.16
2022-11-29T01:46:56.908Z,101972.41
2022-11-29T01:49:45.540Z,101977.52
2022-11-29T01:52:24.273Z,101973.64
2022-11-29T01:54:58.575Z,101976.10
2022-11-29T01:57:27.473Z,101979.67
2022-11-29T02:00:08.838Z,101978.60
2022-11-29T02:03:09.381Z,101977.60
2022-11-29T02:05:49.497Z,101975.14
2022-11-29T02:08:43.690Z,101975.00
2022-11-29T02:11:31.951Z,101975.11
2022-11-29T02:14:40.224Z,101970.98
2022-11-29T02:17:54.068Z,101971.30
2022-11-29T02:20:28.501Z,101972.35
2022-11-29T02:23:19.587Z,101972.30
2022-11-29T02:26:22.208Z,101971.28
2022-11-29T02:29:40.724Z,101975.67
2022-11-29T02:32:52.683Z,101972.05
2022-11-29T02:35:36.366Z,101971.64
2022-11-29T02:38:23.063Z,101968.29
2022-11-29T02:41:00.431Z,101967.08
2022-11-29T02:43:58.226Z,101965.06
2022-11-29T02:46:57.716Z,101968.70
2022-11-29T02:49:50.439Z,101970.05
2022-11-29T02:52:27.674Z,101969.98
2022-11-29T02:55:09.364Z,101970.64
2022-11-29T02:57:50.628Z,101969.56
2022-11-29T03:00:22.035Z,101968.06
2022-11-29T03:03:14.752Z,101968.31
2022-11-29T03:06:17.187Z,101970.23
2022-11-29T03:09:06.353Z,101972.41
2022-11-29T03:12:32.348Z,101972.55
2022-11-29T03:15:22.371Z,101966.02
2022-11-29T03:18:34.668Z,101970.37
2022-11-29T03:21:27.437Z,101976.46
2022-11-29T03:24:01.564Z,101981.11
2022-11-29T03:26:39.436Z,101976.13
2022-11-29T03:29:30.605Z,101977.75
2022-11-29T03:32:34.301Z,101978.55
2022-11-29T03:35:08.071Z,101982.41
2022-11-29T03:38:21.401Z,101984.73
2022-11-29T03:41:10.282Z,101985.09
2022-11-29T03:44:10.396Z,101987.52
2022-11-29T03:47:07.092Z,101985.74
2022-11-29T03:49:49.859Z,101985.48
2022-11-29T03:52:44.238Z,101992.34
2022-11-29T03:55:52.815Z,101990.65
2022-11-29T03:58:21.369Z,101996.56
2022-11-29T04:00:49.814Z,101997.08
2022-11-29T04:04:01.325Z,102000.83
2022-11-29T04:07:14.915Z,101994.81
2022-11-29T04:10:17.690Z,101996.09
2022-11-29T04:13:26.631Z,102001.14
2022-11-29T04:16:22.609Z,102001.36
2022-11-29T04:19:15.507Z,102000.48
2022-11-29T04:22:07.685Z,101999.66
2022-11-29T04:24:54.753Z,102005.98
2022-11-29T04:27:41.726Z,102007.38
2022-11-29T04:30:19.502Z,102006.11
2022-11-29T04:33:33.474Z,102007.13
2022-11-29T04:36:51.715Z,102003.83
2022-11-29T04:39:42.171Z,102011.16
2022-11-29T04:42:45.354Z,102015.65
2022-11-29T04:45:38.185Z,102020.88
2022-11-29T04:48:37.991Z,102021.84
2022-11-29T04:51:31.683Z,102022.42
2022-11-29T04:54:15.367Z,102022.20
2022-11-29T04:56:51.196Z,102025.04
2022-11-29T04:59:37.016Z,102021.96
2022-11-29T05:02:32.546Z,102022.83
2022-11-29T05:05:07.585Z,102028.12
2022-11-29T05:08:24.391Z,102031.39
2022-11-29T05:11:04.216Z,102036.95
2022-11-29T05:14:13.585Z,102039.27
2022-11-29T05:17:09.074Z,102047.52
2022-11-29T05:19:55.985Z,102051.78
2022-11-29T05:22:47.068Z,102055.31
2022-11-29T05:25:46.176Z,102053.70
2022-11-29T05:28:41.712Z,102059.33
2022-11-29T05:31:25.164Z,102057.37
2022-11-29T05:34:12.367Z,102058.92
2022-11-29T05:37:17.515Z,102064.16
2022-11-29T05:40:39.784Z,102070.73
2022-11-29T05:43:30.082Z,102073.22
2022-11-29T05:46:36.660Z,102076.08
2022-11-29T05:49:23.524Z,102078.70
2022-11-29T05:52:16.369Z,102076.67
2022-11-29T05:55:07.080Z,102082.46
2022-11-29T06:02:02.146Z,102085.94
2022-11-29T06:05:14.826Z,102086.34
2022-11-29T06:08:16.636Z,102084.48
2022-11-29T06:11:34.351Z,102087.21
2022-11-29T06:14:08.203Z,102081.23
2022-11-29T06:16:44.182Z,102077.30
2022-11-29T06:19:40.826Z,102082.33
2022-11-29T06:22:46.676Z,102084.43
2022-11-29T06:25:38.436Z,102092.13
2022-11-29T06:29:02.807Z,102089.17
2022-11-29T06:31:51.176Z,102091.52
2022-11-29T06:34:27.581Z,102091.45
2022-11-29T06:37:28.464Z,102090.77
2022-11-29T06:40:04.346Z,102093.17
2022-11-29T06:42:36.382Z,102094.81
2022-11-29T06:45:16.617Z,102092.55
2022-11-29T06:48:02.780Z,102092.34
2022-11-29T06:51:13.280Z,102089.70
2022-11-29T06:54:08.973Z,102088.23
2022-11-29T06:57:20.576Z,102086.11
2022-11-29T06:59:57.523Z,102087.80
2022-11-29T07:03:26.988Z,102083.55
2022-11-29T07:05:57.537Z,102077.54
2022-11-29T07:08:26.725Z,102079.06
2022-11-29T07:10:56.268Z,102084.08
2022-11-29T07:13:32.263Z,102090.33
2022-11-29T07:16:57.319Z,102092.02
2022-11-29T07:20:18.840Z,102085.04
2022-11-29T07:23:11.789Z,102083.66
2022-11-29T07:26:18.142Z,102081.81
2022-11-29T07:29:32.915Z,102079.73
2022-11-29T07:32:27.346Z,102085.34
2022-11-29T07:35:21.768Z,102088.05
2022-11-29T07:38:06.738Z,102086.30
2022-11-29T07:40:57.067Z,102090.48
2022-11-29T07:44:23.872Z,102090.48
2022-11-29T07:46:52.548Z,102086.37
2022-11-29T07:49:21.161Z,102090.32
2022-11-29T07:51:51.271Z,102091.61
2022-11-29T07:54:20.200Z,102089.23
2022-11-29T07:56:48.918Z,102086.67
2022-11-29T07:59:17.751Z,102088.86
2022-11-29T08:01:46.551Z,102091.08
2022-11-29T08:04:16.659Z,102092.55
2022-11-29T08:06:46.531Z,102092.21
2022-11-29T08:09:15.327Z,102093.38
2022-11-29T08:14:59.944Z,102095.52
2022-11-29T08:20:59.021Z,102094.55
2022-11-29T08:23:27.612Z,102096.13
2022-11-29T08:26:04.169Z,102098.32
2022-11-29T08:28:59.406Z,102098.64
2022-11-29T08:31:28.248Z,102099.21
2022-11-29T08:34:07.126Z,102096.67
2022-11-29T08:36:35.795Z,102098.32
2022-11-29T08:39:09.287Z,102095.65
2022-11-29T08:41:38.574Z,102093.05
2022-11-29T08:44:07.873Z,102088.71
2022-11-29T08:46:54.867Z,102086.52
2022-11-29T08:49:23.702Z,102084.10
2022-11-29T08:52:13.796Z,102080.55
2022-11-29T08:54:44.062Z,102080.34
2022-11-29T09:00:01.700Z,102077.92
2022-11-29T09:02:30.377Z,102078.95
2022-11-29T09:05:08.784Z,102070.23
2022-11-29T09:07:39.007Z,102064.83
2022-11-29T09:10:09.765Z,102064.46
2022-11-29T09:12:40.726Z,102064.01
2022-11-29T09:15:14.276Z,102066.66
2022-11-29T09:17:42.929Z,102066.91
2022-11-29T09:22:04.976Z,102065.61
2022-11-29T09:27:47.822Z,102069.90
2022-11-29T09:30:22.114Z,102070.64
2022-11-29T09:32:52.467Z,102066.38
2022-11-29T09:35:23.635Z,102069.00
2022-11-29T09:38:21.666Z,102067.36
2022-11-29T09:41:55.024Z,102064.75
2022-11-29T09:45:01.226Z,102056.34
2022-11-29T09:52:56.404Z,102062.76
2022-11-29T09:56:26.937Z,102062.66
2022-11-29T09:59:54.457Z,102062.95
2022-11-29T10:06:39.542Z,102054.81
2022-11-29T10:09:56.912Z,102054.73
2022-11-29T10:12:46.838Z,102055.83
2022-11-29T10:15:26.027Z,102051.80
2022-11-29T10:18:16.531Z,102044.89
2022-11-29T10:24:22.100Z,102041.05
2022-11-29T10:27:01.637Z,102037.63
2022-11-29T10:29:32.100Z,102031.56
2022-11-29T10:32:09.978Z,102031.63
2022-11-29T10:34:54.228Z,102035.90
2022-11-29T10:37:25.689Z,102036.36
2022-11-29T10:40:06.597Z,102035.29
2022-11-29T10:42:52.682Z,102037.75
2022-11-29T10:46:07.055Z,102028.55
2022-11-29T10:48:44.704Z,102029.63
2022-11-29T10:51:26.350Z,102030.59
2022-11-29T10:54:43.376Z,102024.09
2022-11-29T10:58:32.297Z,102027.45
2022-11-29T11:01:08.037Z,102030.23
2022-11-29T11:03:39.540Z,102028.87
2022-11-29T11:06:43.487Z,102028.23
2022-11-29T11:09:47.412Z,102020.61
2022-11-29T11:12:16.259Z,102022.91
2022-11-29T11:14:47.419Z,102020.98
2022-11-29T11:17:22.862Z,102024.27
2022-11-29T11:20:01.219Z,102027.86
2022-11-29T11:24:10.910Z,102031.11
2022-11-29T11:26:50.908Z,102030.02
2022-11-29T11:32:37.399Z,102030.11
2022-11-29T11:35:24.612Z,102028.16
2022-11-29T11:37:57.787Z,102025.59
2022-11-29T11:40:30.647Z,102028.60
2022-11-29T11:43:03.604Z,102026.20
2022-11-29T11:45:39.093Z,102023.89
2022-11-29T11:48:26.336Z,102025.73
2022-11-29T11:50:59.748Z,102020.23
2022-11-29T11:53:36.571Z,102025.17
2022-11-29T11:56:21.771Z,102021.77
2022-11-29T11:58:58.648Z,102018.95
2022-11-29T12:01:40.091Z,102022.81
2022-11-29T12:04:26.332Z,102019.71
2022-11-29T12:08:21.255Z,102023.30
2022-11-29T12:12:04.198Z,102027.20
2022-11-29T12:15:28.579Z,102026.52
2022-11-29T12:19:10.528Z,102026.79
2022-11-29T12:21:45.287Z,102023.67
2022-11-29T12:24:28.888Z,102025.84
2022-11-29T12:27:31.495Z,102021.60
2022-11-29T12:30:01.248Z,102016.02
2022-11-29T12:32:40.201Z,102014.27
2022-11-29T12:35:35.281Z,102015.86
2022-11-29T12:41:54.688Z,102018.09
2022-11-29T12:44:45.248Z,102013.26
2022-11-29T12:47:48.925Z,102016.06
2022-11-29T12:51:05.383Z,102020.41
2022-11-29T12:54:12.861Z,102021.25
2022-11-29T12:57:40.852Z,102017.15
2022-11-29T13:00:19.276Z,102024.16
2022-11-29T13:03:34.135Z,102027.30
2022-11-29T13:06:40.579Z,102024.55
2022-11-29T13:09:53.820Z,102026.79
2022-11-29T13:12:42.033Z,102026.91
2022-11-29T13:15:17.407Z,102026.48
2022-11-29T13:18:20.059Z,102028.05
2022-11-29T13:21:04.797Z,102025.84
2022-11-29T13:24:09.099Z,102030.77
2022-11-29T13:26:41.649Z,102036.31
2022-11-29T13:29:16.902Z,102039.98
2022-11-29T13:31:48.067Z,102039.16
2022-11-29T13:34:52.595Z,102043.44
2022-11-29T13:37:41.492Z,102037.02
2022-11-29T13:40:58.770Z,102042.16
2022-11-29T13:43:49.356Z,102042.13
2022-11-29T13:46:39.384Z,102047.73
2022-11-29T13:49:58.378Z,102052.48
2022-11-29T13:52:35.599Z,102051.88
2022-11-29T13:55:23.667Z,102049.19
2022-11-29T13:58:16.643Z,102056.86
2022-11-29T14:00:46.027Z,102058.67
2022-11-29T14:03:26.213Z,102060.06
2022-11-29T14:06:28.430Z,102064.28
2022-11-29T14:11:54.582Z,102055.04
2022-11-29T14:14:32.089Z,102049.92
2022-11-29T14:17:34.131Z,102051.02
2022-11-29T14:20:44.081Z,102050.52
2022-11-29T14:23:12.627Z,102050.38
2022-11-29T14:25:59.333Z,102048.58
2022-11-29T14:28:39.263Z,102046.09
2022-11-29T14:31:09.922Z,102045.61
2022-11-29T14:34:10.098Z,102045.30
2022-11-29T14:36:50.230Z,102042.70
2022-11-29T14:39:50.360Z,102043.02
2022-11-29T14:42:22.129Z,102043.89
2022-11-29T14:45:04.872Z,102047.27
2022-11-29T14:47:48.259Z,102050.33
2022-11-29T14:50:33.120Z,102049.61
2022-11-29T14:53:27.598Z,102044.29
2022-11-29T14:56:31.888Z,102049.26
2022-11-29T14:59:54.910Z,102050.86
2022-11-29T15:02:48.798Z,102051.73
2022-11-29T15:05:24.706Z,102045.54
2022-11-29T15:08:19.373Z,102049.80
2022-11-29T15:10:57.696Z,102047.98
2022-11-29T15:13:33.438Z,102047.74
2022-11-29T15:16:19.779Z,102047.73
2022-11-29T15:18:54.138Z,102044.06
2022-11-29T15:22:04.105Z,102043.86
2022-11-29T15:24:32.760Z,102044.41
2022-11-29T15:27:04.156Z,102045.83
2022-11-29T15:29:32.701Z,102049.27
2022-11-29T15:32:06.055Z,102052.19
2022-11-29T15:34:40.586Z,102053.88
2022-11-29T15:37:50.816Z,102055.46
2022-11-29T15:40:23.237Z,102057.02
2022-11-29T15:43:02.561Z,102057.90
2022-11-29T15:45:37.576Z,102061.61
2022-11-29T15:48:28.234Z,102063.16
2022-11-29T15:51:02.690Z,102064.11
2022-11-29T15:54:00.379Z,102059.88
2022-11-29T15:56:49.241Z,102062.91
2022-11-29T15:59:49.159Z,102062.40
2022-11-29T16:02:32.875Z,102062.61
2022-11-29T16:05:22.611Z,102063.45
2022-11-29T16:07:57.574Z,102067.39
2022-11-29T16:10:43.664Z,102063.79
2022-11-29T16:13:40.374Z,102063.47
2022-11-29T16:16:19.336Z,102066.27
2022-11-29T16:18:50.001Z,102065.28
2022-11-29T16:21:29.383Z,102065.48
2022-11-29T16:23:59.308Z,102060.23
2022-11-29T16:26:33.650Z,102058.05
2022-11-29T16:29:02.972Z,102059.84
2022-11-29T16:31:38.437Z,102058.41
2022-11-29T16:34:33.926Z,102064.40
2022-11-29T16:37:14.588Z,102073.05
2022-11-29T16:39:48.322Z,102070.11
2022-11-29T16:42:25.903Z,102075.15
2022-11-29T16:44:54.801Z,102075.58
2022-11-29T16:47:26.891Z,102078.76
2022-11-29T16:50:14.678Z,102087.33
2022-11-29T16:52:43.609Z,102082.80
2022-11-29T16:55:13.122Z,102086.28
2022-11-29T16:57:41.965Z,102086.92
2022-11-29T17:00:31.835Z,102089.23
2022-11-29T17:03:00.790Z,102092.81
2022-11-29T17:05:30.526Z,102088.95
2022-11-29T17:07:59.358Z,102090.20
2022-11-29T17:10:29.048Z,102091.56
2022-11-29T17:12:57.616Z,102091.39
2022-11-29T17:15:26.202Z,102094.66
2022-11-29T17:17:54.743Z,102097.91
2022-11-29T17:20:23.457Z,102100.89
2022-11-29T17:22:54.834Z,102103.67
2022-11-29T17:25:23.459Z,102104.45
2022-11-29T17:27:52.033Z,102107.25
2022-11-29T17:30:20.728Z,102107.58
2022-11-29T17:32:49.218Z,102109.11
2022-11-29T17:35:17.836Z,102110.69
2022-11-29T17:37:46.496Z,102114.11
2022-11-29T17:40:15.898Z,102113.75
2022-11-29T17:42:44.392Z,102111.45
2022-11-29T17:45:12.970Z,102115.88
2022-11-29T17:47:41.412Z,102120.10
2022-11-29T17:50:10.825Z,102120.38
2022-11-29T17:52:39.925Z,102121.43
2022-11-29T17:55:09.481Z,102123.42
2022-11-29T17:57:38.064Z,102123.60
2022-11-29T18:00:09.057Z,102123.94
2022-11-29T18:02:37.925Z,102127.09
2022-11-29T18:05:07.365Z,102126.79
2022-11-29T18:07:55.952Z,102127.63
2022-11-29T18:10:27.246Z,102126.05
2022-11-29T18:12:56.505Z,102128.66
2022-11-29T18:15:25.098Z,102129.73
2022-11-29T18:17:53.632Z,102134.12
2022-11-29T18:20:22.100Z,102133.75
2022-11-29T18:22:53.496Z,102134.44
2022-11-29T18:25:39.505Z,102135.15
2022-11-29T18:28:08.811Z,102132.97
2022-11-29T18:30:37.398Z,102135.04
2022-11-29T18:33:06.153Z,102136.93
2022-11-29T18:35:34.723Z,102135.81
2022-11-29T18:38:18.371Z,102135.34
2022-11-29T18:40:47.132Z,102137.14
2022-11-29T18:43:17.034Z,102135.23
2022-11-29T18:45:45.665Z,102133.26
2022-11-29T18:48:14.237Z,102137.16
2022-11-29T18:50:42.750Z,102136.72
2022-11-29T18:53:11.336Z,102137.77
2022-11-29T18:55:39.942Z,102135.91
2022-11-29T18:58:08.536Z,102137.60
2022-11-29T19:00:41.249Z,102136.08
2022-11-29T19:03:10.317Z,102138.73
2022-11-29T19:05:38.990Z,102139.81
2022-11-29T19:08:08.160Z,102141.77
2022-11-29T19:10:38.910Z,102138.48
2022-11-29T19:13:08.640Z,102138.34
2022-11-29T19:15:37.404Z,102136.39
2022-11-29T19:18:06.296Z,102136.72
2022-11-29T19:20:34.863Z,102136.00
2022-11-29T19:23:03.991Z,102135.14
2022-11-29T19:25:37.544Z,102135.35
2022-11-29T19:28:33.589Z,102130.36
2022-11-29T19:31:05.500Z,102130.14
2022-11-29T19:33:37.018Z,102133.40
2022-11-29T19:36:12.330Z,102139.45
2022-11-29T19:38:43.299Z,102141.83
2022-11-29T19:41:24.011Z,102143.31
2022-11-29T19:43:54.544Z,102145.08
2022-11-29T19:46:30.493Z,102144.96
2022-11-29T19:49:06.279Z,102147.88
2022-11-29T19:51:37.963Z,102150.64
2022-11-29T19:54:09.382Z,102153.23
2022-11-29T19:56:41.842Z,102149.59
2022-11-29T19:59:13.035Z,102152.96
2022-11-29T20:01:46.665Z,102150.14
2022-11-29T20:04:17.452Z,102151.21
2022-11-29T20:06:47.840Z,102146.82
2022-11-29T20:09:16.591Z,102141.98
2022-11-29T20:11:52.596Z,102143.96
2022-11-29T20:14:21.700Z,102144.95
2022-11-29T20:16:50.454Z,102146.36
2022-11-29T20:19:20.763Z,102151.11
2022-11-29T20:21:49.468Z,102150.48
2022-11-29T20:24:19.593Z,102149.91
2022-11-29T20:26:49.523Z,102155.05
2022-11-29T20:29:19.415Z,102153.87
2022-11-29T20:31:51.007Z,102159.20
2022-11-29T20:34:20.997Z,102159.21
2022-11-29T20:37:40.327Z,102156.64
2022-11-29T20:40:47.601Z,102154.59
2022-11-29T20:43:45.146Z,102155.78
2022-11-29T20:46:18.570Z,102154.73
2022-11-29T20:49:00.429Z,102156.75
2022-11-29T20:51:47.001Z,102151.13
2022-11-29T20:54:18.433Z,102151.45
2022-11-29T20:56:47.022Z,102154.09
2022-11-29T20:59:15.664Z,102156.02
2022-11-29T21:01:48.104Z,102156.36
2022-11-29T21:04:23.669Z,102153.80
2022-11-29T21:06:52.507Z,102153.36
2022-11-29T21:09:21.200Z,102154.70
2022-11-29T21:11:50.143Z,102151.42
2022-11-29T21:14:22.179Z,102156.20
2022-11-29T21:16:51.815Z,102153.69
2022-11-29T21:19:27.724Z,102160.20
2022-11-29T21:22:17.555Z,102160.91
2022-11-29T21:25:18.038Z,102156.16
2022-11-29T21:27:47.646Z,102153.93
2022-11-29T21:30:23.455Z,102151.73
2022-11-29T21:32:52.796Z,102151.66
2022-11-29T21:35:24.971Z,102152.23
2022-11-29T21:38:02.637Z,102150.70
2022-11-29T21:40:32.527Z,102150.33
2022-11-29T21:43:01.123Z,102149.09
2022-11-29T21:45:29.866Z,102154.56
2022-11-29T21:48:01.526Z,102158.48
2022-11-29T21:53:41.285Z,102159.59
2022-11-29T21:56:12.456Z,102156.32
2022-11-29T21:58:41.161Z,102160.83
2022-11-29T22:04:33.271Z,102153.74
2022-11-29T22:07:02.094Z,102149.95
2022-11-29T22:09:32.037Z,102147.48
2022-11-29T22:12:04.041Z,102148.76
2022-11-29T22:14:46.322Z,102145.63
2022-11-29T22:17:14.923Z,102140.66
2022-11-29T22:19:46.026Z,102135.38
2022-11-29T22:22:14.433Z,102130.67
2022-11-29T22:24:43.017Z,102125.16
2022-11-29T22:27:11.609Z,102128.00
2022-11-29T22:29:40.222Z,102132.31
2022-11-29T22:32:08.861Z,102133.82
2022-11-29T22:34:39.265Z,102135.39
2022-11-29T22:37:10.278Z,102134.83
2022-11-29T22:39:38.839Z,102139.73
2022-11-29T22:42:08.884Z,102141.48
2022-11-29T22:44:38.234Z,102146.65
2022-11-29T22:47:06.865Z,102145.12
2022-11-29T22:49:40.721Z,102148.35
2022-11-29T22:52:11.444Z,102145.59
2022-11-29T22:54:40.327Z,102141.02
2022-11-29T22:57:08.796Z,102132.39
2022-11-29T22:59:37.164Z,102125.50
2022-11-29T23:02:06.886Z,102120.73
2022-11-29T23:04:37.395Z,102118.08
2022-11-29T23:07:08.456Z,102116.20
2022-11-29T23:09:36.935Z,102118.78
2022-11-29T23:12:05.754Z,102119.73
2022-11-29T23:14:34.123Z,102115.13
2022-11-29T23:17:03.819Z,102113.27
2022-11-29T23:19:32.319Z,102104.95
2022-11-29T23:22:00.821Z,102107.14
2022-11-29T23:24:29.944Z,102103.66
2022-11-29T23:26:58.370Z,102103.67
2022-11-29T23:29:26.859Z,102104.75
2022-11-29T23:31:55.399Z,102101.02
2022-11-29T23:34:23.929Z,102097.38
2022-11-29T23:36:53.219Z,102098.91
2022-11-29T23:39:22.085Z,102105.37
2022-11-29T23:41:50.570Z,102102.46
2022-11-29T23:44:19.030Z,102103.20
2022-11-29T23:46:47.507Z,102101.05
2022-11-29T23:49:15.917Z,102100.76
2022-11-29T23:51:44.423Z,102103.48
2022-11-29T23:54:12.899Z,102106.50
2022-11-29T23:56:41.399Z,102105.02
2022-11-29T23:59:09.897Z,102101.34
